createdAt,value
2019-01-19T00:00:28.578Z,81.50
2019-01-19T00:03:08.466Z,81.80
2019-01-19T00:06:08.318Z,81.68
2019-01-19T00:08:41.984Z,81.49
2019-01-19T00:11:46.303Z,81.29
2019-01-19T00:14:21.053Z,81.50
2019-01-19T00:17:16.229Z,81.57
2019-01-19T00:20:06.809Z,81.35
2019-01-19T00:22:49.944Z,81.61
2019-01-19T00:25:30.111Z,81.37
2019-01-19T00:28:04.445Z,81.42
2019-01-19T00:30:41.429Z,81.89
2019-01-19T00:33:21.497Z,81.85
2019-01-19T00:36:10.627Z,81.73
2019-01-19T00:38:53.457Z,81.91
2019-01-19T00:41:33.402Z,81.91
2019-01-19T00:44:25.338Z,82.15
2019-01-19T00:47:25.082Z,82.59
2019-01-19T00:49:59.415Z,83.18
2019-01-19T00:52:36.395Z,83.19
2019-01-19T00:55:25.096Z,83.06
2019-01-19T00:58:14.302Z,83.29
2019-01-19T01:00:57.055Z,83.49
2019-01-19T01:03:34.103Z,83.81
2019-01-19T01:06:26.011Z,83.85
2019-01-19T01:09:05.946Z,83.61
2019-01-19T01:12:03.821Z,83.31
2019-01-19T01:15:26.835Z,83.14
2019-01-19T01:18:01.179Z,83.03
2019-01-19T01:20:46.865Z,83.18
2019-01-19T01:23:53.974Z,83.07
2019-01-19T01:26:42.314Z,82.90
2019-01-19T01:29:49.269Z,82.70
2019-01-19T01:32:26.233Z,82.49
2019-01-19T01:35:32.835Z,82.23
2019-01-19T01:38:17.858Z,82.12
2019-01-19T01:41:37.229Z,81.88
2019-01-19T01:44:20.663Z,81.57
2019-01-19T01:47:33.654Z,81.28
2019-01-19T01:50:31.646Z,81.29
2019-01-19T01:53:32.757Z,81.44
2019-01-19T01:56:02.799Z,81.64
2019-01-19T01:58:42.490Z,82.14
2019-01-19T02:01:34.582Z,82.26
2019-01-19T02:04:20.304Z,82.11
2019-01-19T02:07:09.086Z,81.82
2019-01-19T02:09:52.024Z,81.95
2019-01-19T02:13:02.350Z,82.03
2019-01-19T02:15:48.340Z,81.86
2019-01-19T02:18:25.313Z,81.55
2019-01-19T02:21:11.495Z,81.71
2019-01-19T02:23:48.531Z,81.69
2019-01-19T02:26:40.420Z,81.44
2019-01-19T02:29:14.666Z,81.16
2019-01-19T02:31:54.399Z,80.88
2019-01-19T02:34:34.725Z,80.87
2019-01-19T02:37:21.053Z,80.76
2019-01-19T02:40:04.180Z,80.79
2019-01-19T02:42:56.607Z,80.71
2019-01-19T02:45:51.436Z,80.41
2019-01-19T02:49:06.287Z,80.33
2019-01-19T02:51:46.194Z,80.14
2019-01-19T02:54:35.077Z,80.16
2019-01-19T02:57:25.894Z,80.20
2019-01-19T03:00:16.442Z,80.22
2019-01-19T03:02:59.494Z,80.25
2019-01-19T03:05:39.784Z,80.32
2019-01-19T03:08:45.081Z,80.15
2019-01-19T03:11:31.022Z,80.22
2019-01-19T03:14:05.273Z,80.51
2019-01-19T03:17:12.417Z,80.57
2019-01-19T03:20:01.445Z,80.68
2019-01-19T03:23:13.214Z,80.96
2019-01-19T03:26:02.304Z,80.54
2019-01-19T03:28:45.222Z,80.83
2019-01-19T03:31:27.725Z,81.13
2019-01-19T03:34:07.299Z,80.89
2019-01-19T03:37:00.809Z,80.53
2019-01-19T03:40:09.104Z,81.11
2019-01-19T03:42:51.916Z,81.44
2019-01-19T03:45:43.997Z,81.46
2019-01-19T03:48:38.761Z,81.39
2019-01-19T03:51:21.559Z,80.85
2019-01-19T03:54:04.967Z,81.13
2019-01-19T03:56:58.284Z,81.23
2019-01-19T03:59:43.596Z,81.84
2019-01-19T04:03:04.382Z,82.28
2019-01-19T04:05:56.243Z,82.09
2019-01-19T04:08:45.156Z,81.99
2019-01-19T04:12:00.058Z,81.70
2019-01-19T04:14:45.767Z,81.62
2019-01-19T04:17:51.543Z,81.22
2019-01-19T04:20:55.743Z,80.94
2019-01-19T04:23:25.471Z,81.09
2019-01-19T04:26:00.201Z,81.07
2019-01-19T04:28:29.918Z,81.08
2019-01-19T04:30:59.688Z,80.98
2019-01-19T04:33:29.509Z,80.73
2019-01-19T04:35:59.297Z,80.56
2019-01-19T04:38:29.635Z,80.39
2019-01-19T04:40:59.344Z,80.33
2019-01-19T04:43:28.996Z,80.09
2019-01-19T04:45:58.701Z,79.99
2019-01-19T04:48:28.824Z,79.95
2019-01-19T04:50:58.477Z,79.75
2019-01-19T04:53:28.127Z,79.86
2019-01-19T04:55:57.934Z,79.62
2019-01-19T04:58:27.638Z,79.71
2019-01-19T05:00:57.399Z,80.04
2019-01-19T05:03:27.117Z,80.06
2019-01-19T05:05:56.904Z,80.12
2019-01-19T05:08:26.578Z,79.93
2019-01-19T05:10:56.475Z,80.01
2019-01-19T05:13:26.221Z,79.82
2019-01-19T05:15:55.861Z,80.01
2019-01-19T05:18:25.949Z,80.11
2019-01-19T05:20:55.878Z,80.22
2019-01-19T05:23:25.906Z,80.14
2019-01-19T05:25:55.854Z,79.88
2019-01-19T05:28:25.509Z,79.96
2019-01-19T05:30:55.300Z,80.18
2019-01-19T05:33:25.097Z,80.62
2019-01-19T05:35:54.783Z,81.08
2019-01-19T05:38:24.574Z,81.29
2019-01-19T05:40:54.352Z,81.00
2019-01-19T05:43:24.023Z,81.06
2019-01-19T05:45:53.750Z,81.02
2019-01-19T05:48:23.408Z,80.79
2019-01-19T05:50:53.073Z,80.61
2019-01-19T05:53:22.760Z,80.34
2019-01-19T05:55:52.557Z,80.09
2019-01-19T05:58:22.271Z,79.89
2019-01-19T06:00:52.827Z,79.82
2019-01-19T06:03:22.616Z,79.76
2019-01-19T06:05:52.709Z,79.81
2019-01-19T06:08:22.424Z,79.70
2019-01-19T06:10:52.190Z,79.63
2019-01-19T06:13:21.869Z,79.64
2019-01-19T06:15:51.653Z,79.59
2019-01-19T06:18:21.436Z,79.66
2019-01-19T06:20:51.089Z,79.59
2019-01-19T06:23:20.947Z,79.53
2019-01-19T06:25:50.603Z,79.51
2019-01-19T06:28:20.350Z,79.29
2019-01-19T06:30:50.110Z,79.38
2019-01-19T06:33:19.878Z,79.23
2019-01-19T06:35:49.625Z,79.39
2019-01-19T06:38:19.404Z,79.11
2019-01-19T06:40:49.065Z,79.23
2019-01-19T06:43:18.853Z,79.35
2019-01-19T06:45:48.647Z,79.46
2019-01-19T06:48:18.383Z,79.62
2019-01-19T06:50:54.707Z,79.98
2019-01-19T06:53:24.773Z,79.93
2019-01-19T06:55:54.629Z,79.20
2019-01-19T06:58:24.464Z,78.95
2019-01-19T07:00:54.238Z,78.88
2019-01-19T07:03:23.905Z,78.46
2019-01-19T07:05:53.674Z,79.02
2019-01-19T07:08:23.530Z,78.98
2019-01-19T07:10:53.277Z,78.83
2019-01-19T07:13:22.951Z,78.73
2019-01-19T07:15:53.006Z,78.80
2019-01-19T07:18:22.664Z,78.69
2019-01-19T07:20:52.466Z,78.48
2019-01-19T07:23:22.206Z,78.40
2019-01-19T07:25:51.912Z,78.61
2019-01-19T07:28:21.669Z,78.63
2019-01-19T07:30:51.356Z,78.78
2019-01-19T07:33:21.158Z,79.04
2019-01-19T07:35:50.899Z,79.17
2019-01-19T07:38:20.639Z,79.00
2019-01-19T07:40:50.693Z,78.78
2019-01-19T07:43:20.925Z,78.58
2019-01-19T07:45:50.713Z,78.29
2019-01-19T07:48:20.455Z,78.84
2019-01-19T07:50:50.334Z,78.96
2019-01-19T07:53:20.076Z,78.93
2019-01-19T07:55:49.804Z,79.07
2019-01-19T07:58:19.537Z,79.37
2019-01-19T08:00:49.352Z,79.38
2019-01-19T08:03:19.069Z,79.01
2019-01-19T08:05:48.858Z,78.76
2019-01-19T08:08:18.581Z,78.53
2019-01-19T08:10:48.375Z,78.28
2019-01-19T08:13:18.119Z,78.01
2019-01-19T08:15:47.834Z,77.69
2019-01-19T08:18:17.600Z,77.22
2019-01-19T08:20:47.320Z,77.05
2019-01-19T08:23:17.097Z,76.74
2019-01-19T08:25:46.816Z,76.66
2019-01-19T08:28:16.521Z,76.37
2019-01-19T08:30:46.254Z,75.91
2019-01-19T08:33:16.038Z,75.36
2019-01-19T08:35:45.787Z,75.06
2019-01-19T08:38:15.791Z,75.21
2019-01-19T08:40:45.728Z,74.73
2019-01-19T08:43:17.040Z,74.71
2019-01-19T08:45:47.112Z,74.53
2019-01-19T08:48:17.323Z,74.32
2019-01-19T08:51:20.505Z,73.74
2019-01-19T08:53:50.275Z,73.53
2019-01-19T08:56:20.062Z,73.18
2019-01-19T08:58:50.344Z,72.44
2019-01-19T09:01:20.182Z,71.55
2019-01-19T09:03:50.148Z,71.28
2019-01-19T09:06:19.948Z,70.97
2019-01-19T09:08:49.660Z,70.54
2019-01-19T09:11:19.423Z,70.45
2019-01-19T09:13:49.236Z,70.16
2019-01-19T09:16:19.271Z,69.98
2019-01-19T09:18:49.302Z,69.91
2019-01-19T09:21:19.076Z,69.35
2019-01-19T09:23:50.519Z,69.33
2019-01-19T09:26:20.376Z,68.59
2019-01-19T09:28:50.238Z,67.79
2019-01-19T09:31:19.959Z,67.58
2019-01-19T09:33:49.821Z,67.50
2019-01-19T09:36:19.697Z,67.35
2019-01-19T09:38:49.491Z,66.47
2019-01-19T09:41:19.432Z,66.49
2019-01-19T09:43:49.085Z,65.87
2019-01-19T09:46:19.113Z,66.00
2019-01-19T09:48:49.657Z,65.10
2019-01-19T09:51:19.622Z,65.05
2019-01-19T09:53:49.338Z,65.06
2019-01-19T09:56:19.059Z,67.02
2019-01-19T09:58:48.785Z,66.32
2019-01-19T10:01:18.448Z,64.75
2019-01-19T10:03:48.116Z,64.33
2019-01-19T10:06:17.891Z,63.17
2019-01-19T10:08:47.536Z,63.63
2019-01-19T10:11:17.352Z,62.89
2019-01-19T10:13:47.751Z,63.08
2019-01-19T10:16:17.578Z,63.03
2019-01-19T10:18:47.425Z,61.87
2019-01-19T10:21:17.405Z,63.53
2019-01-19T10:23:47.198Z,61.58
2019-01-19T10:26:16.865Z,61.57
2019-01-19T10:28:48.248Z,61.38
2019-01-19T10:31:17.896Z,60.91
2019-01-19T10:33:47.534Z,60.50
2019-01-19T10:36:17.448Z,59.94
2019-01-19T10:38:47.223Z,61.45
2019-01-19T10:41:16.893Z,59.50
2019-01-19T10:43:46.647Z,60.19
2019-01-19T10:46:16.366Z,60.17
2019-01-19T10:48:46.940Z,59.40
2019-01-19T10:51:16.825Z,57.81
2019-01-19T10:53:46.538Z,58.28
2019-01-19T10:56:16.252Z,58.60
2019-01-19T10:58:46.043Z,58.10
2019-01-19T11:01:15.826Z,57.53
2019-01-19T11:03:45.469Z,57.49
2019-01-19T11:06:15.247Z,56.83
2019-01-19T11:08:45.033Z,57.27
2019-01-19T11:11:15.159Z,57.19
2019-01-19T11:13:44.867Z,56.74
2019-01-19T11:16:14.600Z,56.48
2019-01-19T11:18:44.266Z,56.93
2019-01-19T11:21:14.139Z,56.74
2019-01-19T11:23:43.822Z,56.24
2019-01-19T11:26:13.557Z,56.38
2019-01-19T11:28:43.350Z,56.50
2019-01-19T11:31:13.082Z,56.46
2019-01-19T11:33:42.868Z,55.79
2019-01-19T11:36:12.712Z,55.56
2019-01-19T11:38:42.368Z,55.35
2019-01-19T11:41:12.120Z,55.34
2019-01-19T11:43:41.902Z,55.38
2019-01-19T11:46:11.686Z,54.31
2019-01-19T11:48:41.417Z,54.07
2019-01-19T11:51:11.268Z,53.71
2019-01-19T11:53:41.096Z,54.23
2019-01-19T11:56:12.275Z,54.34
2019-01-19T11:58:42.289Z,53.20
2019-01-19T12:01:12.100Z,52.99
2019-01-19T12:03:41.787Z,53.62
2019-01-19T12:06:11.594Z,53.84
2019-01-19T12:08:41.317Z,53.67
2019-01-19T12:11:10.975Z,53.05
2019-01-19T12:13:40.759Z,52.42
2019-01-19T12:16:10.573Z,52.68
2019-01-19T12:18:40.365Z,52.92
2019-01-19T12:21:10.145Z,52.80
2019-01-19T12:23:39.960Z,51.33
2019-01-19T12:26:09.673Z,51.70
2019-01-19T12:28:39.445Z,51.50
2019-01-19T12:31:09.130Z,50.55
2019-01-19T12:33:38.818Z,50.85
2019-01-19T12:36:08.864Z,51.89
2019-01-19T12:38:38.536Z,52.18
2019-01-19T12:41:08.346Z,51.38
2019-01-19T12:43:38.121Z,50.62
2019-01-19T12:46:07.923Z,51.01
2019-01-19T12:48:37.689Z,51.23
2019-01-19T12:51:07.456Z,50.76
2019-01-19T12:53:37.206Z,50.19
2019-01-19T12:56:07.089Z,50.05
2019-01-19T12:58:36.936Z,49.98
2019-01-19T13:01:06.906Z,49.31
2019-01-19T13:03:37.682Z,47.76
2019-01-19T13:06:17.491Z,47.71
2019-01-19T13:08:47.193Z,47.30
2019-01-19T13:11:36.475Z,47.52
2019-01-19T13:14:06.784Z,47.33
2019-01-19T13:16:56.040Z,47.65
2019-01-19T13:19:33.028Z,47.16
2019-01-19T13:22:57.538Z,47.36
2019-01-19T13:25:55.757Z,47.54
2019-01-19T13:28:42.768Z,47.79
2019-01-19T13:31:35.373Z,47.58
2019-01-19T13:34:16.326Z,47.72
2019-01-19T13:37:02.350Z,47.76
2019-01-19T13:39:39.470Z,48.27
2019-01-19T13:43:02.077Z,48.30
2019-01-19T13:45:45.316Z,48.41
2019-01-19T13:48:28.341Z,47.65
2019-01-19T13:51:14.540Z,47.78
2019-01-19T13:53:48.832Z,47.61
2019-01-19T13:56:50.431Z,46.91
2019-01-19T13:59:58.150Z,47.16
2019-01-19T14:02:35.450Z,46.61
2019-01-19T14:05:32.045Z,46.34
2019-01-19T14:08:34.436Z,45.31
2019-01-19T14:11:33.877Z,45.53
2019-01-19T14:14:13.740Z,44.75
2019-01-19T14:16:48.061Z,43.57
2019-01-19T14:19:37.325Z,43.13
2019-01-19T14:22:23.389Z,43.70
2019-01-19T14:25:08.852Z,43.94
2019-01-19T14:27:55.337Z,44.10
2019-01-19T14:30:53.572Z,44.32
2019-01-19T14:33:39.150Z,44.85
2019-01-19T14:36:25.488Z,45.67
2019-01-19T14:39:11.716Z,45.60
2019-01-19T14:42:22.596Z,45.71
2019-01-19T14:45:09.289Z,45.70
2019-01-19T14:48:01.614Z,45.49
2019-01-19T14:50:47.851Z,45.75
2019-01-19T14:53:43.269Z,46.65
2019-01-19T14:56:35.534Z,46.49
2019-01-19T14:59:21.216Z,46.90
2019-01-19T15:02:25.923Z,46.92
2019-01-19T15:05:02.768Z,47.05
2019-01-19T15:07:43.008Z,47.14
2019-01-19T15:10:47.032Z,47.34
2019-01-19T15:13:54.602Z,47.68
2019-01-19T15:16:43.573Z,47.47
2019-01-19T15:19:51.162Z,48.12
2019-01-19T15:22:57.982Z,48.62
2019-01-19T15:26:05.123Z,48.98
2019-01-19T15:28:50.874Z,48.45
2019-01-19T15:31:43.146Z,48.75
2019-01-19T15:34:50.899Z,49.26
2019-01-19T15:37:55.416Z,49.66
2019-01-19T15:40:41.919Z,49.65
2019-01-19T15:43:30.988Z,50.06
2019-01-19T15:46:05.307Z,50.07
2019-01-19T15:48:53.681Z,50.58
2019-01-19T15:51:36.853Z,50.79
2019-01-19T15:54:16.867Z,50.92
2019-01-19T15:57:06.319Z,51.14
2019-01-19T15:59:55.386Z,51.24
2019-01-19T16:02:45.261Z,51.56
2019-01-19T16:05:47.041Z,51.92
2019-01-19T16:08:54.483Z,52.29
2019-01-19T16:11:43.893Z,52.39
2019-01-19T16:14:57.801Z,52.60
2019-01-19T16:17:48.885Z,52.68
2019-01-19T16:20:44.199Z,52.71
2019-01-19T16:23:42.708Z,52.59
2019-01-19T16:26:37.687Z,53.31
2019-01-19T16:29:41.768Z,54.04
2019-01-19T16:32:18.705Z,55.10
2019-01-19T16:35:16.752Z,55.68
2019-01-19T16:38:10.601Z,55.61
2019-01-19T16:41:25.745Z,56.14
2019-01-19T16:44:26.661Z,56.62
2019-01-19T16:47:22.521Z,57.32
2019-01-19T16:50:30.117Z,57.00
2019-01-19T16:53:16.141Z,57.21
2019-01-19T16:55:53.156Z,57.29
2019-01-19T16:58:30.206Z,56.76
2019-01-19T17:01:27.905Z,57.44
2019-01-19T17:04:23.449Z,57.49
2019-01-19T17:07:12.951Z,57.62
2019-01-19T17:10:02.344Z,57.22
2019-01-19T17:12:51.061Z,57.46
2019-01-19T17:15:45.854Z,57.20
2019-01-19T17:18:35.132Z,57.07
2019-01-19T17:21:37.365Z,57.12
2019-01-19T17:24:32.921Z,57.28
2019-01-19T17:27:25.052Z,57.31
2019-01-19T17:30:29.561Z,57.35
2019-01-19T17:33:15.324Z,57.67
2019-01-19T17:36:10.149Z,57.99
2019-01-19T17:39:04.366Z,57.99
2019-01-19T17:42:12.306Z,58.47
2019-01-19T17:44:55.690Z,59.04
2019-01-19T17:47:32.699Z,59.23
2019-01-19T17:50:18.466Z,59.68
2019-01-19T17:53:10.564Z,59.98
2019-01-19T17:56:13.258Z,60.14
2019-01-19T17:58:56.506Z,59.97
2019-01-19T18:01:51.956Z,60.58
2019-01-19T18:04:34.789Z,60.59
2019-01-19T18:07:23.808Z,61.30
2019-01-19T18:10:16.281Z,61.78
2019-01-19T18:13:06.669Z,62.08
2019-01-19T18:15:55.362Z,62.38
2019-01-19T18:18:35.131Z,62.83
2019-01-19T18:21:30.330Z,63.50
2019-01-19T18:24:40.886Z,63.77
2019-01-19T18:27:29.545Z,63.86
2019-01-19T18:30:27.866Z,64.34
2019-01-19T18:33:23.279Z,64.32
2019-01-19T18:36:03.159Z,64.41
2019-01-19T18:38:56.555Z,65.04
2019-01-19T18:41:46.146Z,64.95
2019-01-19T18:44:58.905Z,65.47
2019-01-19T18:47:45.357Z,65.93
2019-01-19T18:50:42.396Z,66.18
2019-01-19T18:53:31.715Z,66.01
2019-01-19T18:56:12.043Z,65.72
2019-01-19T18:59:08.636Z,66.21
2019-01-19T19:01:59.217Z,66.44
2019-01-19T19:04:45.255Z,66.90
2019-01-19T19:07:29.638Z,66.90
2019-01-19T19:10:22.291Z,66.91
2019-01-19T19:13:08.888Z,66.96
2019-01-19T19:15:56.914Z,67.02
2019-01-19T19:18:46.105Z,67.00
2019-01-19T19:21:46.580Z,67.03
2019-01-19T19:24:36.980Z,67.42
2019-01-19T19:27:14.230Z,67.05
2019-01-19T19:29:57.027Z,67.72
2019-01-19T19:32:43.133Z,68.03
2019-01-19T19:35:23.160Z,67.95
2019-01-19T19:38:06.133Z,68.30
2019-01-19T19:40:52.094Z,67.90
2019-01-19T19:43:38.542Z,68.18
2019-01-19T19:46:21.412Z,68.09
2019-01-19T19:48:58.737Z,68.00
2019-01-19T19:52:00.216Z,67.56
2019-01-19T19:54:30.908Z,66.99
2019-01-19T19:57:01.160Z,66.99
2019-01-19T19:59:31.221Z,67.08
2019-01-19T20:02:01.750Z,66.70
2019-01-19T20:04:31.574Z,66.80
2019-01-19T20:07:01.945Z,66.72
2019-01-19T20:09:31.763Z,67.01
2019-01-19T20:12:03.157Z,67.26
2019-01-19T20:14:33.071Z,67.64
2019-01-19T20:17:02.866Z,67.98
2019-01-19T20:19:33.247Z,68.04
2019-01-19T20:22:03.043Z,68.45
2019-01-19T20:24:32.727Z,68.37
2019-01-19T20:27:02.610Z,68.00
2019-01-19T20:29:32.399Z,68.42
2019-01-19T20:32:02.299Z,68.15
2019-01-19T20:34:32.152Z,68.41
2019-01-19T20:37:01.982Z,68.38
2019-01-19T20:39:31.707Z,68.80
2019-01-19T20:42:01.466Z,69.05
2019-01-19T20:44:31.152Z,69.09
2019-01-19T20:47:00.882Z,68.72
2019-01-19T20:49:30.727Z,69.07
2019-01-19T20:52:00.430Z,68.59
2019-01-19T20:54:30.163Z,68.82
2019-01-19T20:57:01.570Z,68.41
2019-01-19T20:59:31.222Z,68.37
2019-01-19T21:02:00.904Z,68.06
2019-01-19T21:04:30.597Z,68.28
2019-01-19T21:07:00.267Z,68.10
2019-01-19T21:09:30.068Z,68.02
2019-01-19T21:11:59.873Z,68.19
2019-01-19T21:14:29.614Z,66.83
2019-01-19T21:16:59.323Z,67.04
2019-01-19T21:19:29.004Z,67.17
2019-01-19T21:21:58.665Z,66.11
2019-01-19T21:24:28.428Z,66.75
2019-01-19T21:26:58.172Z,66.98
2019-01-19T21:29:27.942Z,67.33
2019-01-19T21:31:57.679Z,67.71
2019-01-19T21:34:27.427Z,67.99
2019-01-19T21:36:57.226Z,68.08
2019-01-19T21:39:27.036Z,68.24
2019-01-19T21:41:56.768Z,68.45
2019-01-19T21:44:26.463Z,68.57
2019-01-19T21:46:56.291Z,68.49
2019-01-19T21:49:25.949Z,68.75
2019-01-19T21:51:55.681Z,69.02
2019-01-19T21:54:25.479Z,69.00
2019-01-19T21:56:55.195Z,68.74
2019-01-19T21:59:24.870Z,67.73
2019-01-19T22:01:54.655Z,67.39
2019-01-19T22:04:24.464Z,67.26
2019-01-19T22:06:54.189Z,67.73
2019-01-19T22:09:23.910Z,66.72
2019-01-19T22:11:53.577Z,67.40
2019-01-19T22:14:23.290Z,66.77
2019-01-19T22:16:53.034Z,66.90
2019-01-19T22:19:22.743Z,66.77
2019-01-19T22:21:52.734Z,66.65
2019-01-19T22:24:22.526Z,66.30
2019-01-19T22:26:53.047Z,65.24
2019-01-19T22:29:23.141Z,65.44
2019-01-19T22:31:52.853Z,65.50
2019-01-19T22:34:22.528Z,65.46
2019-01-19T22:36:52.294Z,65.57
2019-01-19T22:39:22.073Z,65.95
2019-01-19T22:41:51.743Z,66.02
2019-01-19T22:44:21.478Z,66.35
2019-01-19T22:46:51.328Z,66.69
2019-01-19T22:49:21.042Z,67.21
2019-01-19T22:51:50.740Z,67.27
2019-01-19T22:54:21.507Z,67.60
2019-01-19T22:56:51.181Z,67.45
2019-01-19T22:59:20.893Z,67.29
2019-01-19T23:01:50.942Z,67.49
2019-01-19T23:04:20.759Z,67.07
2019-01-19T23:06:50.817Z,66.71
2019-01-19T23:09:20.484Z,65.72
2019-01-19T23:11:50.204Z,65.81
2019-01-19T23:14:20.032Z,65.17
2019-01-19T23:16:49.795Z,64.80
2019-01-19T23:19:19.437Z,64.31
2019-01-19T23:21:49.599Z,64.26
2019-01-19T23:24:19.481Z,64.08
2019-01-19T23:26:50.207Z,63.76
2019-01-19T23:29:20.133Z,63.55
2019-01-19T23:31:49.761Z,63.80
2019-01-19T23:34:19.497Z,63.63
2019-01-19T23:36:49.324Z,63.47
2019-01-19T23:39:19.131Z,63.59
2019-01-19T23:41:48.893Z,63.88
2019-01-19T23:44:18.775Z,63.50
2019-01-19T23:46:48.448Z,64.00
2019-01-19T23:49:18.178Z,64.83
2019-01-19T23:51:47.948Z,64.54
2019-01-19T23:54:17.707Z,64.16
2019-01-19T23:56:47.530Z,63.77
2019-01-19T23:59:17.390Z,62.84
